Time;durP1;ratioP1;P1;durP2;ratioP2;P2;SDS_P1;SDS_P2;PMS_P1;PMS_P2;Temp;Humidity;BMP_temperature;BMP_pressure;BME280_temperature;BME280_humidity;BME280_pressure;Samples;Min_cycle;Max_cycle;Signal;HPM_P1;HPM_P2
2024/01/08 00:00:40;;;;;;;28.30;10.00;;;;;;;-10.09;62.81;98926.52;105741;1251;73806;-28
2024/01/08 00:03:07;;;;;;;32.50;11.80;;;;;;;-10.26;63.16;98923.48;105892;1256;74225;-27
2024/01/08 00:05:38;;;;;;;22.90;9.30;;;;;;;-10.58;63.99;98917.60;105940;1254;72435;-27
2024/01/08 00:08:08;;;;;;;10.80;6.00;;;;;;;-10.55;63.63;98915.10;105712;1251;61046;-28
2024/01/08 00:10:37;;;;;;;17.50;8.70;;;;;;;-10.10;63.00;98921.83;105882;1251;61067;-28
2024/01/08 00:13:04;;;;;;;8.60;5.20;;;;;;;-9.98;62.29;98920.14;105860;1251;73634;-28
2024/01/08 00:15:31;;;;;;;11.00;5.80;;;;;;;-10.34;63.10;98928.36;105820;1251;74559;-27
2024/01/08 00:17:58;;;;;;;9.50;5.50;;;;;;;-10.38;63.01;98928.70;105713;1256;73154;-27
2024/01/08 00:20:25;;;;;;;11.60;5.80;;;;;;;-10.45;63.60;98928.52;105940;1253;61301;-28
2024/01/08 00:22:53;;;;;;;7.90;4.20;;;;;;;-10.60;63.94;98934.39;105976;1255;61086;-27
2024/01/08 00:25:23;;;;;;;9.20;4.90;;;;;;;-10.35;63.20;98928.37;105938;1251;73602;-27
2024/01/08 00:27:50;;;;;;;13.10;7.50;;;;;;;-9.73;62.31;98937.27;105787;1251;75703;-27
2024/01/08 00:30:17;;;;;;;9.00;4.00;;;;;;;-10.11;62.14;98932.73;105811;1251;72680;-28
2024/01/08 00:32:46;;;;;;;10.90;5.00;;;;;;;-10.24;62.32;98936.59;105773;1251;61074;-28
2024/01/08 00:35:14;;;;;;;11.30;5.80;;;;;;;-10.24;63.13;98938.27;105854;1251;61090;-28
2024/01/08 00:37:41;;;;;;;6.50;4.20;;;;;;;-10.86;63.78;98930.63;105810;1251;73852;-27
2024/01/08 00:40:09;;;;;;;10.50;5.20;;;;;;;-10.79;64.03;98933.48;105905;1256;74453;-27
2024/01/08 00:42:37;;;;;;;8.50;4.80;;;;;;;-10.54;63.29;98933.70;105911;1251;72689;-27
2024/01/08 00:45:05;;;;;;;11.00;5.70;;;;;;;-10.16;61.74;98940.13;105728;1260;61056;-27
2024/01/08 00:47:32;;;;;;;15.90;7.30;;;;;;;-10.40;62.45;98938.77;105912;1255;61130;-27
2024/01/08 00:50:00;;;;;;;12.20;6.40;;;;;;;-10.82;63.43;98933.30;105973;1251;73629;-28
2024/01/08 00:52:29;;;;;;;17.10;8.00;;;;;;;-10.86;63.56;98939.34;105945;1251;73054;-27
2024/01/08 00:55:01;;;;;;;10.30;5.80;;;;;;;-11.16;63.74;98932.19;105925;1251;72608;-26
2024/01/08 00:57:29;;;;;;;9.60;5.20;;;;;;;-10.96;63.99;98932.77;105979;1251;61825;-26
2024/01/08 00:59:56;;;;;;;12.10;7.00;;;;;;;-10.51;62.73;98935.05;105964;1257;61096;-28
2024/01/08 01:02:23;;;;;;;8.90;4.90;;;;;;;-10.59;62.35;98936.73;105725;1251;73422;-27
2024/01/08 01:04:50;;;;;;;11.40;6.10;;;;;;;-10.70;62.62;98936.53;105580;1256;74307;-26
2024/01/08 01:07:17;;;;;;;10.90;4.40;;;;;;;-10.98;63.39;98935.27;105911;1251;72599;-26
2024/01/08 01:09:44;;;;;;;4.70;2.70;;;;;;;-10.95;63.36;98940.83;105821;1251;61108;-26
2024/01/08 01:12:11;;;;;;;8.50;4.60;;;;;;;-10.84;63.39;98938.33;105838;1256;61125;-26
2024/01/08 01:14:38;;;;;;;6.30;3.50;;;;;;;-11.01;63.66;98929.06;105980;1251;73886;-26
2024/01/08 01:17:04;;;;;;;10.00;5.90;;;;;;;-10.69;62.93;98935.87;105943;1251;74370;-26
2024/01/08 01:19:32;;;;;;;13.00;5.70;;;;;;;-10.82;63.22;98935.00;105900;1251;72730;-27
2024/01/08 01:21:59;;;;;;;10.30;5.40;;;;;;;-11.03;63.20;98938.78;105874;1251;61093;-27
2024/01/08 01:24:26;;;;;;;10.30;4.40;;;;;;;-11.20;63.86;98938.19;105790;1251;61173;-26
2024/01/08 01:26:53;;;;;;;9.40;5.30;;;;;;;-11.31;64.27;98939.48;105940;1255;73841;-26
2024/01/08 01:29:20;;;;;;;6.50;3.80;;;;;;;-11.23;64.10;98934.98;105938;1251;74199;-26
2024/01/08 01:31:47;;;;;;;8.30;4.40;;;;;;;-10.88;63.60;98942.67;105713;1251;72654;-27
2024/01/08 01:34:17;;;;;;;5.60;3.10;;;;;;;-11.01;63.03;98943.64;105773;1253;61007;-27
2024/01/08 01:36:45;;;;;;;7.90;4.30;;;;;;;-10.55;62.38;98943.44;105762;1257;61186;-26
2024/01/08 01:39:12;;;;;;;8.20;4.80;;;;;;;-11.17;63.48;98932.69;105957;1251;73775;-26
2024/01/08 01:41:38;;;;;;;9.00;5.50;;;;;;;-11.03;63.72;98939.44;105993;1256;74380;-26
2024/01/08 01:44:05;;;;;;;6.60;4.40;;;;;;;-11.00;63.51;98938.12;105942;1256;72590;-27
2024/01/08 01:46:40;;;;;;;8.30;4.70;;;;;;;-10.87;63.60;98936.65;105710;1251;61290;-26
2024/01/08 01:49:12;;;;;;;10.40;4.20;;;;;;;-10.17;62.29;98945.15;105850;1257;61173;-27
2024/01/08 01:51:40;;;;;;;10.00;5.10;;;;;;;-10.62;62.24;98933.19;105765;1257;72639;-27
2024/01/08 01:54:08;;;;;;;7.80;4.10;;;;;;;-10.68;62.79;98940.08;105939;1256;73099;-26
2024/01/08 01:56:35;;;;;;;11.20;4.30;;;;;;;-10.87;63.31;98941.86;105961;1256;71261;-27
2024/01/08 01:59:03;;;;;;;8.20;4.00;;;;;;;-11.16;63.76;98941.91;105959;1251;61150;-27
2024/01/08 02:01:30;;;;;;;7.50;3.90;;;;;;;-11.16;64.69;98943.74;105677;1251;61049;-27
2024/01/08 02:03:57;;;;;;;10.60;6.10;;;;;;;-10.47;63.00;98944.80;105900;1251;73776;-27
2024/01/08 02:06:24;;;;;;;9.70;5.40;;;;;;;-10.67;62.53;98939.73;105854;1251;74325;-27
2024/01/08 02:08:52;;;;;;;10.90;5.70;;;;;;;-11.05;63.56;98943.46;105846;1251;72640;-27
2024/01/08 02:11:20;;;;;;;10.40;5.10;;;;;;;-11.20;64.34;98944.91;105766;1253;61179;-27
2024/01/08 02:13:47;;;;;;;7.70;4.30;;;;;;;-11.25;64.30;98949.90;104907;1257;1002887;-27
2024/01/08 02:16:15;;;;;;;9.80;4.00;;;;;;;-11.36;64.67;98951.70;105610;1251;73816;-27
2024/01/08 02:18:41;;;;;;;8.50;4.20;;;;;;;-11.09;63.91;98947.80;105699;1256;74396;-27
2024/01/08 02:21:08;;;;;;;13.10;6.20;;;;;;;-10.95;62.96;98946.17;105699;1251;72611;-27
2024/01/08 02:23:35;;;;;;;12.00;7.00;;;;;;;-10.91;63.08;98951.73;105830;1251;61054;-27
2024/01/08 02:26:02;;;;;;;12.90;6.30;;;;;;;-11.27;63.68;98953.23;105664;1257;61567;-27
2024/01/08 02:28:29;;;;;;;13.80;7.80;;;;;;;-11.57;64.66;98948.40;105902;1251;74312;-27
2024/01/08 02:30:56;;;;;;;8.70;4.70;;;;;;;-11.41;64.94;98956.86;105785;1251;74282;-27
2024/01/08 02:33:23;;;;;;;7.70;4.20;;;;;;;-11.06;64.16;98951.17;105871;1251;72639;-26
2024/01/08 02:35:50;;;;;;;5.60;2.90;;;;;;;-10.73;62.66;98945.92;105820;1251;61117;-27
2024/01/08 02:38:17;;;;;;;6.80;4.20;;;;;;;-10.61;62.34;98957.02;105863;1251;61165;-27
2024/01/08 02:40:44;;;;;;;9.10;5.10;;;;;;;-11.23;63.34;98950.58;105747;1251;73721;-27
2024/01/08 02:43:11;;;;;;;11.70;6.20;;;;;;;-11.29;63.84;98958.10;105887;1256;74326;-27
2024/01/08 02:45:38;;;;;;;11.90;6.20;;;;;;;-11.58;64.55;98951.06;105878;1255;72668;-26
2024/01/08 02:48:06;;;;;;;10.10;5.80;;;;;;;-11.51;64.89;98956.14;105677;1257;61840;-26
2024/01/08 02:50:33;;;;;;;13.80;6.50;;;;;;;-11.23;63.74;98961.14;105735;1251;61118;-27
2024/01/08 02:53:00;;;;;;;11.80;6.20;;;;;;;-11.31;63.79;98967.97;105855;1251;73798;-27
2024/01/08 02:55:27;;;;;;;11.30;6.60;;;;;;;-10.98;63.24;98967.96;105729;1256;74245;-27
2024/01/08 02:57:53;;;;;;;13.00;5.00;;;;;;;-11.63;64.07;98968.11;105858;1251;72683;-26
2024/01/08 03:00:20;;;;;;;6.90;3.80;;;;;;;-11.74;64.74;98960.65;105922;1251;61144;-26
2024/01/08 03:02:47;;;;;;;8.70;4.10;;;;;;;-11.71;64.84;98962.37;105913;1257;61156;-26
2024/01/08 03:05:14;;;;;;;8.30;4.40;;;;;;;-11.30;63.77;98961.78;105960;1251;72713;-27
2024/01/08 03:07:41;;;;;;;7.80;5.40;;;;;;;-11.06;63.09;98967.59;105927;1256;74235;-27
2024/01/08 03:10:08;;;;;;;16.20;6.70;;;;;;;-10.80;62.97;98976.92;105921;1251;72618;-26
2024/01/08 03:12:35;;;;;;;14.60;10.00;;;;;;;-11.13;63.60;98973.43;105697;1256;61098;-27
2024/01/08 03:15:01;;;;;;;12.00;7.80;;;;;;;-11.51;64.37;98976.23;105770;1256;61182;-27
2024/01/08 03:17:29;;;;;;;9.60;6.30;;;;;;;-11.64;65.11;98973.80;105852;1251;73763;-26
2024/01/08 03:19:56;;;;;;;9.30;5.20;;;;;;;-11.40;64.75;98980.66;105883;1251;74443;-27
2024/01/08 03:22:23;;;;;;;8.50;4.60;;;;;;;-11.10;63.25;98979.48;105906;1251;71477;-27
2024/01/08 03:24:50;;;;;;;9.60;4.60;;;;;;;-11.08;63.04;98978.66;105942;1251;60975;-27
2024/01/08 03:27:16;;;;;;;10.60;5.50;;;;;;;-11.56;64.24;98985.41;105821;1251;61096;-27
2024/01/08 03:29:43;;;;;;;12.10;6.60;;;;;;;-11.64;64.78;98983.70;105968;1251;73837;-27
2024/01/08 03:32:11;;;;;;;6.70;4.20;;;;;;;-11.68;64.89;98989.19;105925;1256;75170;-28
2024/01/08 03:34:41;;;;;;;7.90;3.90;;;;;;;-11.51;64.48;98984.27;105913;1252;72512;-27
2024/01/08 03:37:09;;;;;;;11.80;6.30;;;;;;;-11.16;63.53;98996.73;105910;1251;61056;-27
2024/01/08 03:39:36;;;;;;;12.00;5.40;;;;;;;-10.76;62.38;99000.11;105973;1257;61074;-27
2024/01/08 03:42:04;;;;;;;7.40;4.30;;;;;;;-11.38;63.26;99002.46;105959;1251;73884;-27
2024/01/08 03:44:31;;;;;;;10.00;5.20;;;;;;;-11.87;64.96;98998.59;105945;1251;73087;-27
2024/01/08 03:46:58;;;;;;;7.20;4.00;;;;;;;-11.75;65.35;99001.36;105939;1254;72529;-27
2024/01/08 03:49:26;;;;;;;9.90;4.80;;;;;;;-11.46;64.12;99001.41;105930;1251;61625;-27
2024/01/08 03:51:53;;;;;;;10.30;5.20;;;;;;;-10.88;62.42;99006.92;105831;1257;61154;-27
2024/01/08 03:54:20;;;;;;;10.20;5.00;;;;;;;-11.46;63.44;99013.14;105952;1251;73722;-27
2024/01/08 03:56:47;;;;;;;6.00;3.50;;;;;;;-11.21;62.97;99018.66;105988;1256;74088;-27
2024/01/08 03:59:14;;;;;;;13.90;5.80;;;;;;;-11.42;63.53;99021.38;105983;1251;72702;-27
2024/01/08 04:01:45;;;;;;;7.00;3.90;;;;;;;-11.57;64.07;99022.95;105992;1251;61033;-27
2024/01/08 04:04:12;;;;;;;7.30;3.90;;;;;;;-11.39;63.89;99022.56;105927;1252;61131;-27
2024/01/08 04:06:38;;;;;;;8.90;4.60;;;;;;;-10.96;62.56;99022.66;105847;1251;73683;-27
2024/01/08 04:09:05;;;;;;;9.10;4.70;;;;;;;-10.75;61.72;99029.45;105937;1251;74343;-27
2024/01/08 04:11:32;;;;;;;5.40;2.80;;;;;;;-11.49;63.35;99036.23;105945;1255;73190;-27
2024/01/08 04:13:59;;;;;;;8.60;4.10;;;;;;;-11.57;63.69;99044.20;105718;1251;61123;-27
2024/01/08 04:16:26;;;;;;;6.30;3.30;;;;;;;-11.70;64.27;99043.27;105644;1256;61162;-27
2024/01/08 04:18:53;;;;;;;7.30;3.60;;;;;;;-11.45;63.85;99049.50;105741;1251;74462;-27
2024/01/08 04:21:20;;;;;;;7.50;4.40;;;;;;;-11.15;62.74;99051.89;105687;1251;74384;-27
2024/01/08 04:23:47;;;;;;;12.80;4.90;;;;;;;-11.72;63.27;99045.11;105953;1251;73267;-27
2024/01/08 04:26:15;;;;;;;15.00;6.10;;;;;;;-11.66;63.46;99048.33;105606;1251;61049;-27
2024/01/08 04:28:43;;;;;;;12.90;5.10;;;;;;;-11.88;63.94;99056.52;105887;1256;61149;-27
2024/01/08 04:31:19;;;;;;;16.40;6.20;;;;;;;-12.14;64.59;99052.94;105946;1256;73651;-27
2024/01/08 04:33:46;;;;;;;21.10;6.70;;;;;;;-11.48;63.64;99065.07;105727;1251;74396;-27
2024/01/08 04:36:14;;;;;;;13.20;5.40;;;;;;;-11.59;63.04;99057.12;105877;1251;72676;-27
2024/01/08 04:38:41;;;;;;;15.20;6.60;;;;;;;-11.62;63.10;99059.92;105796;1251;61022;-27
2024/01/08 04:41:08;;;;;;;55.90;20.20;;;;;;;-11.64;63.53;99065.28;105758;1251;61103;-27
2024/01/08 04:43:35;;;;;;;28.50;13.80;;;;;;;-11.74;63.72;99062.00;105924;1251;73787;-27
2024/01/08 04:46:03;;;;;;;21.80;11.20;;;;;;;-11.99;64.04;99066.33;105976;1251;74233;-27
2024/01/08 04:48:30;;;;;;;16.80;8.70;;;;;;;-12.12;64.47;99066.36;105843;1251;72659;-27
2024/01/08 04:50:58;;;;;;;31.00;15.20;;;;;;;-11.63;63.43;99076.69;105729;1251;61080;-27
2024/01/08 04:53:24;;;;;;;21.60;9.70;;;;;;;-11.48;62.43;99077.30;105687;1256;61165;-27
2024/01/08 04:55:51;;;;;;;154.30;56.60;;;;;;;-11.88;63.37;99078.31;105856;1254;75334;-27
2024/01/08 04:58:19;;;;;;;82.30;35.00;;;;;;;-11.84;63.46;99083.69;104494;1251;1003558;-27
2024/01/08 05:00:46;;;;;;;34.50;17.00;;;;;;;-12.08;64.21;99081.61;105758;1251;73269;-27
2024/01/08 05:03:12;;;;;;;77.30;37.60;;;;;;;-12.13;64.08;99084.77;105765;1251;61857;-28
2024/01/08 05:05:39;;;;;;;32.40;15.20;;;;;;;-11.67;63.37;99089.71;105826;1256;61112;-26
2024/01/08 05:08:07;;;;;;;21.70;11.20;;;;;;;-11.08;61.69;99102.41;105594;1251;200639;-27
2024/01/08 05:10:34;;;;;;;28.50;15.20;;;;;;;-11.48;62.10;99105.45;105975;1251;74385;-27
2024/01/08 05:13:00;;;;;;;23.90;13.30;;;;;;;-11.90;62.87;99100.72;105998;1251;72617;-27
2024/01/08 05:15:27;;;;;;;12.80;7.00;;;;;;;-11.90;63.41;99110.26;105944;1251;61228;-27
2024/01/08 05:17:54;;;;;;;14.70;7.60;;;;;;;-12.05;64.01;99111.80;105732;1256;61125;-27
2024/01/08 05:20:22;;;;;;;8.90;5.60;;;;;;;-11.83;62.97;99115.20;105904;1256;73633;-27
2024/01/08 05:22:48;;;;;;;28.10;13.10;;;;;;;-11.54;61.97;99120.14;105948;1255;74091;-27
2024/01/08 05:25:15;;;;;;;24.60;11.50;;;;;;;-11.96;62.59;99113.06;105976;1251;73504;-27
2024/01/08 05:27:42;;;;;;;24.90;14.00;;;;;;;-12.20;63.51;99119.01;105899;1251;61232;-27
2024/01/08 05:30:10;;;;;;;24.20;12.20;;;;;;;-11.79;62.87;99131.98;105958;1253;61092;-27
2024/01/08 05:32:37;;;;;;;16.60;9.60;;;;;;;-12.14;63.61;99129.27;105700;1257;74371;-26
2024/01/08 05:35:05;;;;;;;34.30;13.50;;;;;;;-11.67;62.43;99135.27;105951;1251;74321;-27
2024/01/08 05:37:32;;;;;;;19.20;8.10;;;;;;;-11.86;61.80;99138.63;105945;1251;72504;-27
2024/01/08 05:39:59;;;;;;;16.30;8.80;;;;;;;-12.06;62.95;99135.22;105734;1251;61052;-27
2024/01/08 05:42:26;;;;;;;19.60;7.80;;;;;;;-12.37;63.34;99140.72;105052;1251;1003599;-26
2024/01/08 05:44:53;;;;;;;9.00;3.90;;;;;;;-12.39;63.47;99144.89;105907;1256;61263;-26
2024/01/08 05:47:20;;;;;;;12.30;7.60;;;;;;;-12.01;62.90;99141.45;105944;1254;74846;-27
2024/01/08 05:49:46;;;;;;;14.60;8.30;;;;;;;-11.95;62.13;99141.67;105850;1251;72497;-27
2024/01/08 05:52:13;;;;;;;16.50;9.80;;;;;;;-11.99;62.14;99142.34;105791;1251;61148;-27
2024/01/08 05:54:40;;;;;;;19.60;9.00;;;;;;;-11.84;61.82;99150.85;105880;1256;61171;-27
2024/01/08 05:57:07;;;;;;;21.70;12.30;;;;;;;-12.16;62.37;99154.84;105709;1251;73548;-28
2024/01/08 05:59:34;;;;;;;13.70;6.50;;;;;;;-12.67;63.68;99154.38;105823;1251;75294;-27
2024/01/08 06:02:04;;;;;;;7.50;4.50;;;;;;;-12.37;63.17;99155.79;105914;1251;72618;-28
2024/01/08 06:04:31;;;;;;;10.10;5.70;;;;;;;-11.99;62.29;99162.73;105896;1251;61092;-27
2024/01/08 06:06:58;;;;;;;9.90;5.90;;;;;;;-12.33;62.66;99159.85;105689;1256;61062;-27
2024/01/08 06:09:25;;;;;;;16.20;9.00;;;;;;;-11.99;61.82;99160.57;105728;1251;73857;-27
2024/01/08 06:11:52;;;;;;;36.00;18.20;;;;;;;-12.36;62.72;99163.66;105868;1256;74393;-28
2024/01/08 06:14:18;;;;;;;472.90;228.70;;;;;;;-12.61;63.44;99165.83;105930;1254;72689;-27
2024/01/08 06:16:45;;;;;;;34.80;16.00;;;;;;;-12.52;63.17;99171.32;105884;1251;62063;-28
2024/01/08 06:19:12;;;;;;;37.20;16.80;;;;;;;-12.18;62.37;99171.92;105712;1254;61168;-28
2024/01/08 06:21:40;;;;;;;46.00;22.60;;;;;;;-12.30;62.35;99174.30;105660;1251;73799;-28
2024/01/08 06:24:07;;;;;;;23.60;13.80;;;;;;;-12.40;62.50;99177.33;105813;1251;74145;-27
2024/01/08 06:26:33;;;;;;;14.20;6.90;;;;;;;-12.70;63.22;99180.93;105934;1251;73175;-27
2024/01/08 06:29:00;;;;;;;14.40;8.70;;;;;;;-12.72;63.51;99184.58;105762;1251;61833;-28
2024/01/08 06:31:28;;;;;;;18.70;8.70;;;;;;;-12.14;62.17;99191.20;105712;1256;61531;-29
2024/01/08 06:33:55;;;;;;;25.30;13.00;;;;;;;-12.01;61.57;99194.55;105858;1251;73666;-29
2024/01/08 06:36:22;;;;;;;31.10;12.50;;;;;;;-12.14;61.37;99188.19;105977;1251;74314;-29
2024/01/08 06:38:49;;;;;;;42.70;18.00;;;;;;;-12.58;62.30;99187.30;105993;1251;72690;-28
2024/01/08 06:41:16;;;;;;;52.10;18.90;;;;;;;-12.64;63.00;99194.73;105984;1251;61030;-28
2024/01/08 06:43:43;;;;;;;19.60;9.40;;;;;;;-12.47;62.53;99192.11;105964;1255;61154;-28
2024/01/08 06:46:10;;;;;;;16.90;9.10;;;;;;;-11.94;61.54;99199.80;105927;1251;73796;-28
2024/01/08 06:48:38;;;;;;;18.40;10.40;;;;;;;-12.06;60.78;99198.64;105913;1251;74879;-28
2024/01/08 06:51:05;;;;;;;26.50;12.60;;;;;;;-12.33;61.76;99207.55;105909;1255;72476;-28
2024/01/08 06:53:32;;;;;;;28.20;20.40;;;;;;;-12.39;62.10;99212.31;105949;1251;61048;-28
2024/01/08 06:55:59;;;;;;;21.80;13.80;;;;;;;-12.63;62.35;99212.31;105920;1254;61134;-28
2024/01/08 06:58:26;;;;;;;16.10;9.10;;;;;;;-12.80;62.73;99212.23;105928;1251;73840;-28
2024/01/08 07:00:53;;;;;;;9.40;6.30;;;;;;;-12.42;61.74;99213.61;105944;1251;74115;-28
2024/01/08 07:03:20;;;;;;;13.20;8.00;;;;;;;-12.31;61.46;99220.79;105830;1256;72628;-28
2024/01/08 07:05:47;;;;;;;16.00;7.00;;;;;;;-11.73;60.26;99227.17;105779;1251;61042;-27
2024/01/08 07:08:15;;;;;;;21.30;12.50;;;;;;;-12.79;61.39;99227.29;105908;1256;61154;-27
2024/01/08 07:10:42;;;;;;;14.60;9.90;;;;;;;-12.79;62.44;99229.30;105840;1251;73919;-27
2024/01/08 07:13:09;;;;;;;12.10;7.00;;;;;;;-12.71;62.15;99228.42;105745;1251;74124;-28
2024/01/08 07:15:45;;;;;;;8.60;4.60;;;;;;;-12.25;61.13;99231.76;105715;1251;71722;-28
2024/01/08 07:18:12;;;;;;;19.90;9.20;;;;;;;-11.70;60.17;99240.77;105588;1251;61175;-28
2024/01/08 07:20:40;;;;;;;21.40;13.70;;;;;;;-12.06;60.40;99241.72;105738;1256;61549;-27
2024/01/08 07:23:11;;;;;;;15.00;8.20;;;;;;;-12.09;60.54;99242.67;105903;1251;73773;-27
2024/01/08 07:25:38;;;;;;;9.90;5.10;;;;;;;-12.63;62.39;99246.75;105765;1251;74313;-28
2024/01/08 07:28:07;;;;;;;10.50;6.20;;;;;;;-12.26;61.52;99252.82;105831;1256;73156;-28
2024/01/08 07:30:34;;;;;;;10.10;6.40;;;;;;;-12.02;60.70;99257.48;105830;1257;61173;-29
2024/01/08 07:33:01;;;;;;;6.90;4.20;;;;;;;-12.18;60.54;99258.29;105901;1256;61180;-28
2024/01/08 07:35:29;;;;;;;13.80;8.70;;;;;;;-12.24;60.52;99263.90;105958;1256;72587;-28
2024/01/08 07:37:56;;;;;;;46.60;15.40;;;;;;;-12.52;61.30;99261.99;105726;1257;74338;-28
2024/01/08 07:40:24;;;;;;;31.80;15.20;;;;;;;-12.35;61.37;99267.43;105890;1251;72576;-28
2024/01/08 07:42:55;;;;;;;23.20;12.30;;;;;;;-12.46;61.11;99260.73;105755;1251;61170;-29
2024/01/08 07:45:23;;;;;;;27.40;12.10;;;;;;;-12.27;60.38;99267.70;105750;1259;61195;-29
2024/01/08 07:47:50;;;;;;;51.80;24.10;;;;;;;-12.12;60.38;99271.09;105747;1257;74425;-29
2024/01/08 07:50:19;;;;;;;33.60;16.80;;;;;;;-12.45;60.97;99274.32;105931;1251;74242;-27
2024/01/08 07:52:46;;;;;;;29.60;15.50;;;;;;;-12.35;61.14;99274.11;105923;1251;72532;-27
2024/01/08 07:55:13;;;;;;;20.90;9.70;;;;;;;-12.54;61.53;99275.17;105932;1251;61857;-27
2024/01/08 07:57:40;;;;;;;22.20;11.60;;;;;;;-11.87;60.02;99284.14;105912;1255;61163;-27
2024/01/08 08:00:11;;;;;;;28.30;12.80;;;;;;;-12.11;60.03;99278.14;105977;1251;73722;-27
2024/01/08 08:02:39;;;;;;;11.30;5.50;;;;;;;-11.89;59.68;99284.77;105908;1256;74464;-27
2024/01/08 08:05:06;;;;;;;14.90;8.10;;;;;;;-11.53;58.43;99287.52;105950;1251;72948;-27
2024/01/08 08:07:35;;;;;;;15.00;6.00;;;;;;;-12.28;60.47;99287.95;105822;1251;61105;-27
2024/01/08 08:10:02;;;;;;;9.70;5.00;;;;;;;-11.91;60.29;99290.77;105679;1256;61093;-27
2024/01/08 08:12:30;;;;;;;16.10;10.60;;;;;;;-11.71;59.32;99289.52;105640;1257;73805;-27
2024/01/08 08:15:01;;;;;;;31.50;15.10;;;;;;;-11.31;58.97;99298.86;105840;1252;73196;-27
2024/01/08 08:17:28;;;;;;;35.10;14.50;;;;;;;-11.68;59.47;99298.41;105892;1257;72565;-27
2024/01/08 08:19:55;;;;;;;25.90;13.90;;;;;;;-11.71;59.90;99304.25;105889;1255;61097;-27
2024/01/08 08:22:23;;;;;;;24.80;12.70;;;;;;;-12.02;60.46;99308.90;105947;1256;61140;-27
2024/01/08 08:24:50;;;;;;;17.00;10.60;;;;;;;-12.23;60.80;99310.60;105648;1254;73626;-27
2024/01/08 08:27:17;;;;;;;51.10;23.40;;;;;;;-11.93;60.54;99316.54;105717;1256;74325;-27
2024/01/08 08:29:45;;;;;;;29.80;13.90;;;;;;;-11.72;59.88;99318.81;105771;1251;74002;-27
2024/01/08 08:32:12;;;;;;;37.80;17.60;;;;;;;-11.72;59.01;99321.33;105591;1251;61192;-28
2024/01/08 08:34:40;;;;;;;30.20;13.70;;;;;;;-12.02;59.94;99322.95;105718;1252;61176;-27
2024/01/08 08:37:10;;;;;;;44.60;21.50;;;;;;;-11.59;59.54;99335.40;105749;1255;73832;-28
2024/01/08 08:39:38;;;;;;;24.90;13.60;;;;;;;-11.64;59.60;99339.01;105576;1251;73144;-27
2024/01/08 08:42:05;;;;;;;33.40;20.90;;;;;;;-11.41;58.99;99336.59;105672;1251;72351;-27
2024/01/08 08:44:33;;;;;;;24.40;14.50;;;;;;;-11.56;59.35;99339.63;105577;1251;61050;-27
2024/01/08 08:47:02;;;;;;;54.40;27.30;;;;;;;-11.26;58.66;99344.67;105656;1252;61113;-28
2024/01/08 08:49:29;;;;;;;42.10;22.50;;;;;;;-11.54;58.95;99340.33;105727;1256;73612;-27
2024/01/08 08:52:02;;;;;;;30.60;16.00;;;;;;;-11.98;60.13;99335.73;105720;1251;74309;-27
2024/01/08 08:54:29;;;;;;;17.10;9.20;;;;;;;-11.54;59.85;99349.86;105539;1260;72672;-27
2024/01/08 08:56:56;;;;;;;16.30;10.70;;;;;;;-11.87;59.63;99348.77;105571;1251;62157;-27
2024/01/08 08:59:23;;;;;;;29.90;15.50;;;;;;;-11.29;59.59;99358.70;105660;1256;61228;-28
2024/01/08 09:01:52;;;;;;;41.10;18.30;;;;;;;-11.06;58.10;99355.80;105788;1251;72698;-27
2024/01/08 09:04:20;;;;;;;28.20;17.30;;;;;;;-11.41;58.79;99358.24;105969;1251;75849;-27
2024/01/08 09:06:50;;;;;;;23.70;14.90;;;;;;;-10.77;58.28;99363.14;105229;1251;1002986;-27
2024/01/08 09:09:21;;;;;;;12.10;8.90;;;;;;;-11.19;58.12;99357.83;105924;1254;61071;-27
2024/01/08 09:11:48;;;;;;;21.10;11.10;;;;;;;-11.76;59.57;99361.48;105690;1256;61048;-28
2024/01/08 09:14:15;;;;;;;23.70;12.90;;;;;;;-11.54;59.82;99372.51;105871;1256;73908;-28
2024/01/08 09:16:43;;;;;;;48.40;26.40;;;;;;;-10.85;58.52;99368.27;105953;1251;73607;-29
2024/01/08 09:19:10;;;;;;;11.90;7.90;;;;;;;-10.51;57.46;99374.13;105828;1251;72697;-26
2024/01/08 09:21:37;;;;;;;32.40;15.70;;;;;;;-10.79;57.58;99376.72;105909;1251;61055;-27
2024/01/08 09:24:05;;;;;;;47.70;22.70;;;;;;;-10.50;57.14;99371.45;105900;1255;61106;-27
2024/01/08 09:26:32;;;;;;;24.70;14.10;;;;;;;-11.30;58.43;99370.10;105962;1251;73712;-29
2024/01/08 09:28:59;;;;;;;20.90;11.60;;;;;;;-11.57;59.23;99373.98;105881;1252;73669;-27
2024/01/08 09:31:26;;;;;;;13.40;9.00;;;;;;;-11.47;59.65;99374.43;105912;1256;72644;-27
2024/01/08 09:33:54;;;;;;;11.80;6.80;;;;;;;-11.27;58.99;99373.67;105944;1251;60981;-27
2024/01/08 09:36:21;;;;;;;12.60;7.10;;;;;;;-10.95;57.75;99373.20;105921;1255;61261;-28
2024/01/08 09:38:50;;;;;;;11.20;6.60;;;;;;;-11.42;58.99;99376.85;105938;1251;74372;-28
2024/01/08 09:41:17;;;;;;;15.40;9.60;;;;;;;-11.12;58.51;99379.70;105626;1251;73563;-28
2024/01/08 09:43:52;;;;;;;;;;;;;;;-11.20;59.10;99381.31;105766;1254;71559;-27
2024/01/08 09:46:26;;;;;;;12.50;7.20;;;;;;;-11.47;59.34;99378.28;105577;1257;61272;-27
2024/01/08 09:48:54;;;;;;;17.60;10.20;;;;;;;-10.61;58.02;99387.13;105558;1251;61144;-27
2024/01/08 09:51:22;;;;;;;29.40;12.50;;;;;;;-10.60;56.77;99378.24;105638;1251;73659;-28
2024/01/08 09:53:49;;;;;;;49.70;21.40;;;;;;;-10.80;57.18;99375.52;105604;1251;73326;-27
2024/01/08 09:56:16;;;;;;;32.10;15.90;;;;;;;-10.87;57.94;99381.84;105834;1254;72671;-27
2024/01/08 09:58:44;;;;;;;17.00;9.30;;;;;;;-11.04;57.96;99374.09;105624;1253;61083;-27
2024/01/08 10:01:11;;;;;;;17.30;9.70;;;;;;;-11.50;58.96;99370.36;105675;1257;61099;-27
2024/01/08 10:03:38;;;;;;;10.30;5.60;;;;;;;-11.35;59.48;99372.23;105740;1251;74568;-28
2024/01/08 10:06:07;;;;;;;17.70;9.40;;;;;;;-10.86;58.29;99369.77;105599;1251;73918;-27
2024/01/08 10:08:35;;;;;;;19.50;10.50;;;;;;;-10.34;56.95;99377.96;105617;1254;72440;-27
2024/01/08 10:11:06;;;;;;;17.80;9.80;;;;;;;-10.44;56.86;99379.05;105867;1251;60981;-27
2024/01/08 10:13:35;;;;;;;16.00;8.70;;;;;;;-10.95;57.12;99372.36;105661;1256;61128;-27
2024/01/08 10:16:02;;;;;;;14.30;8.10;;;;;;;-11.06;57.72;99371.73;104997;1255;1002753;-27
2024/01/08 10:18:29;;;;;;;50.50;17.50;;;;;;;-11.48;58.81;99366.72;105840;1257;73650;-29
2024/01/08 10:21:10;;;;;;;14.90;8.10;;;;;;;-11.02;58.45;99376.46;105592;1253;73855;-27
2024/01/08 10:23:38;;;;;;;12.80;8.30;;;;;;;-10.87;57.36;99373.62;105477;1251;61196;-27
2024/01/08 10:26:05;;;;;;;30.40;15.90;;;;;;;-10.69;57.20;99373.78;105723;1257;61096;-27
2024/01/08 10:28:37;;;;;;;60.80;27.20;;;;;;;-10.26;56.28;99371.81;105647;1251;75244;-27
2024/01/08 10:31:10;;;;;;;164.20;71.80;;;;;;;-10.51;57.15;99370.77;105677;1259;73857;-27
2024/01/08 10:33:38;;;;;;;45.00;22.00;;;;;;;-10.66;56.99;99371.80;105428;1251;74008;-28
2024/01/08 10:36:07;;;;;;;34.50;19.10;;;;;;;-10.72;57.82;99373.43;105716;1256;61125;-29
2024/01/08 10:38:34;;;;;;;31.90;16.90;;;;;;;-10.54;57.17;99370.57;105949;1251;61052;-27
2024/01/08 10:41:01;;;;;;;12.30;7.20;;;;;;;-10.12;56.38;99372.23;106024;1251;73394;-27
2024/01/08 10:43:29;;;;;;;52.10;24.70;;;;;;;-9.88;55.35;99376.13;105852;1251;74015;-27
2024/01/08 10:45:58;;;;;;;17.40;8.90;;;;;;;-10.10;55.98;99370.58;105681;1251;72609;-27
2024/01/08 10:48:35;;;;;;;35.70;17.90;;;;;;;-10.49;56.33;99366.58;105588;1251;61062;-29
2024/01/08 10:51:03;;;;;;;34.30;18.20;;;;;;;-10.24;56.79;99377.02;105782;1256;61221;-28
2024/01/08 10:53:39;;;;;;;17.40;10.00;;;;;;;-10.14;56.06;99374.75;105608;1256;73982;-28
2024/01/08 10:56:07;;;;;;;44.60;21.20;;;;;;;-10.30;56.87;99374.63;105595;1259;74394;-27
2024/01/08 10:58:35;;;;;;;18.20;9.90;;;;;;;-10.22;56.21;99367.29;105643;1258;72630;-27
2024/01/08 11:01:03;;;;;;;14.80;7.60;;;;;;;-10.14;56.77;99375.27;105812;1251;61811;-27
2024/01/08 11:03:30;;;;;;;16.10;9.40;;;;;;;-10.17;56.23;99372.55;105593;1257;61244;-27
2024/01/08 11:05:58;;;;;;;15.50;7.30;;;;;;;-10.23;56.13;99369.64;105800;1251;75327;-27
2024/01/08 11:08:25;;;;;;;12.80;7.00;;;;;;;-10.10;56.06;99368.75;105718;1251;74284;-27
2024/01/08 11:10:52;;;;;;;16.80;6.40;;;;;;;-10.25;56.33;99375.68;105577;1256;74004;-27